Felton, Georgia
Current Conditions -  °F | °C
As of 10:35 AM on Sunday 21 Dec 2014 (Local Time) from KPUJ Reporting Station
Haze Haze  
Wind Chill: 44°   Ceiling: 400
Heat Index: 46°   Visibility: 4mi
Dew Point: 46°   Wind: 5mph
Humidity: 100%   Direction: 90°E
Pressure: 30.2"   Gusts: NA
Location:  33.89°N, 85.22°W
Report Text: KPUJ 211535Z AUTO 09004KT 4SM BR OVC004 08/08 A3020 RMK AO2
Loading
Personal Weather Stations






























Interactive Weather Map New forecast layout! Learn more

10-Day Weather Forecast

Advertisements
Track Severe Weather on mobile